createdAt,value
2017-04-08T00:00:02.676Z,1012.97
2017-04-08T00:00:43.186Z,1012.97
2017-04-08T00:01:23.642Z,1012.92
2017-04-08T00:02:04.090Z,1012.97
2017-04-08T00:02:44.483Z,1012.95
2017-04-08T00:03:24.947Z,1012.94
2017-04-08T00:04:05.430Z,1012.95
2017-04-08T00:04:45.933Z,1012.94
2017-04-08T00:05:26.406Z,1012.94
2017-04-08T00:06:06.876Z,1012.95
2017-04-08T00:06:47.340Z,1012.93
2017-04-08T00:07:27.757Z,1012.93
2017-04-08T00:08:08.170Z,1012.89
2017-04-08T00:08:48.650Z,1012.9
2017-04-08T00:09:29.166Z,1012.88
2017-04-08T00:10:10.373Z,1012.88
2017-04-08T00:10:50.813Z,1012.86
2017-04-08T00:11:31.261Z,1012.83
2017-04-08T00:12:11.715Z,1012.82
2017-04-08T00:12:52.173Z,1012.85
2017-04-08T00:13:32.643Z,1012.82
2017-04-08T00:14:13.167Z,1012.82
2017-04-08T00:14:53.557Z,1012.86
2017-04-08T00:15:34.019Z,1012.85
2017-04-08T00:16:14.489Z,1012.86
2017-04-08T00:16:54.943Z,1012.82
2017-04-08T00:17:35.450Z,1012.86
2017-04-08T00:18:15.833Z,1012.85
2017-04-08T00:18:56.296Z,1012.84
2017-04-08T00:19:36.767Z,1012.83
2017-04-08T00:20:17.260Z,1012.79
2017-04-08T00:20:57.764Z,1012.79
2017-04-08T00:21:38.219Z,1012.78
2017-04-08T00:22:18.762Z,1012.75
2017-04-08T00:22:59.224Z,1012.73
2017-04-08T00:23:39.626Z,1012.77
2017-04-08T00:24:20.109Z,1012.76
2017-04-08T00:25:00.534Z,1012.75
2017-04-08T00:25:41.003Z,1012.74
2017-04-08T00:26:21.453Z,1012.74
2017-04-08T00:27:01.930Z,1012.73
2017-04-08T00:27:42.366Z,1012.7
2017-04-08T00:28:23.653Z,1012.69
2017-04-08T00:29:04.122Z,1012.66
2017-04-08T00:29:45.286Z,1012.64
2017-04-08T00:30:25.800Z,1012.64
2017-04-08T00:31:06.260Z,1012.65
2017-04-08T00:31:46.726Z,1012.66
2017-04-08T00:32:27.187Z,1012.63
2017-04-08T00:33:07.571Z,1012.65
2017-04-08T00:33:48.085Z,1012.66
2017-04-08T00:34:28.533Z,1012.61
2017-04-08T00:35:08.982Z,1012.63
2017-04-08T00:35:49.408Z,1012.61
2017-04-08T00:36:29.957Z,1012.63
2017-04-08T00:37:10.438Z,1012.59
2017-04-08T00:37:50.881Z,1012.62
2017-04-08T00:38:31.344Z,1012.62
2017-04-08T00:39:11.813Z,1012.58
2017-04-08T00:39:52.268Z,1012.59
2017-04-08T00:40:32.803Z,1012.56
2017-04-08T00:41:13.270Z,1012.6
2017-04-08T00:41:53.718Z,1012.59
2017-04-08T00:42:34.198Z,1012.57
2017-04-08T00:43:14.650Z,1012.55
2017-04-08T00:43:55.141Z,1012.54
2017-04-08T00:45:52.779Z,1012.56
2017-04-08T00:46:33.238Z,1012.56
2017-04-08T00:47:13.746Z,1012.55
2017-04-08T00:47:54.224Z,1012.58
2017-04-08T00:48:34.727Z,1012.57
2017-04-08T00:49:15.201Z,1012.54
2017-04-08T00:49:55.697Z,1012.57
2017-04-08T00:50:36.192Z,1012.55
2017-04-08T00:51:16.671Z,1012.55
2017-04-08T00:51:57.177Z,1012.57
2017-04-08T00:52:37.645Z,1012.56
2017-04-08T00:53:18.657Z,1012.54
2017-04-08T00:53:59.138Z,1012.54
2017-04-08T00:54:39.623Z,1012.52
2017-04-08T00:55:20.101Z,1012.49
2017-04-08T00:56:00.607Z,1012.51
2017-04-08T00:56:41.117Z,1012.51
2017-04-08T00:57:21.568Z,1012.53
2017-04-08T00:58:02.052Z,1012.5
2017-04-08T00:58:42.537Z,1012.52
2017-04-08T00:59:23.021Z,1012.5
2017-04-08T01:00:03.527Z,1012.52
2017-04-08T01:00:44.009Z,1012.47
2017-04-08T01:01:25.126Z,1012.48
2017-04-08T01:02:05.616Z,1012.48
2017-04-08T01:02:46.108Z,1012.46
2017-04-08T01:03:26.585Z,1012.5
2017-04-08T01:04:07.081Z,1012.47
2017-04-08T01:04:47.580Z,1012.49
2017-04-08T01:05:28.035Z,1012.47
2017-04-08T01:06:08.540Z,1012.45
2017-04-08T01:06:49.037Z,1012.48
2017-04-08T01:07:29.520Z,1012.47
2017-04-08T01:08:10.051Z,1012.48
2017-04-08T01:08:50.545Z,1012.49
2017-04-08T01:09:31.015Z,1012.5
2017-04-08T01:10:11.476Z,1012.44
2017-04-08T01:12:09.118Z,1012.49
2017-04-08T01:12:49.598Z,1012.5
2017-04-08T01:13:30.100Z,1012.53
2017-04-08T01:14:10.593Z,1012.52
2017-04-08T01:14:51.997Z,1012.48
2017-04-08T01:15:32.503Z,1012.52
2017-04-08T01:16:12.985Z,1012.49
2017-04-08T01:18:05.549Z,1012.5
2017-04-08T01:18:46.016Z,1012.48
2017-04-08T01:19:26.480Z,1012.46
2017-04-08T01:20:06.952Z,1012.47
2017-04-08T01:20:47.436Z,1012.45
2017-04-08T01:21:27.920Z,1012.46
2017-04-08T01:22:08.335Z,1012.43
2017-04-08T01:22:48.852Z,1012.41
2017-04-08T01:23:29.311Z,1012.43
2017-04-08T01:24:09.708Z,1012.42
2017-04-08T01:24:50.160Z,1012.47
2017-04-08T01:25:30.615Z,1012.4
2017-04-08T01:26:11.116Z,1012.46
2017-04-08T01:26:51.561Z,1012.42
2017-04-08T01:27:31.991Z,1012.46
2017-04-08T01:28:12.432Z,1012.43
2017-04-08T01:28:52.887Z,1012.48
2017-04-08T01:30:45.423Z,1012.44
2017-04-08T01:31:25.910Z,1012.41
2017-04-08T01:32:06.417Z,1012.43
2017-04-08T01:32:46.949Z,1012.43
2017-04-08T01:33:27.390Z,1012.44
2017-04-08T01:34:07.852Z,1012.45
2017-04-08T01:34:48.351Z,1012.46
2017-04-08T01:35:28.789Z,1012.45
2017-04-08T01:36:09.220Z,1012.45
2017-04-08T01:36:49.693Z,1012.45
2017-04-08T01:37:30.131Z,1012.46
2017-04-08T01:38:10.576Z,1012.42
2017-04-08T01:40:38.566Z,1012.4
2017-04-08T01:41:19.020Z,1012.44
2017-04-08T01:41:59.513Z,1012.39
2017-04-08T01:42:39.994Z,1012.4
2017-04-08T01:43:20.474Z,1012.38
2017-04-08T01:44:00.963Z,1012.38
2017-04-08T01:44:41.449Z,1012.38
2017-04-08T01:45:21.917Z,1012.39
2017-04-08T01:47:14.455Z,1012.36
2017-04-08T01:47:54.958Z,1012.35
2017-04-08T01:48:35.414Z,1012.37
2017-04-08T01:49:15.878Z,1012.39
2017-04-08T01:49:56.320Z,1012.38
2017-04-08T01:50:36.770Z,1012.34
2017-04-08T01:51:17.216Z,1012.35
2017-04-08T01:51:57.705Z,1012.36
2017-04-08T01:52:38.155Z,1012.36
2017-04-08T01:53:18.632Z,1012.38
2017-04-08T01:53:59.071Z,1012.35
2017-04-08T01:56:16.900Z,1012.36
2017-04-08T01:56:57.325Z,1012.28
2017-04-08T01:57:37.806Z,1012.31
2017-04-08T01:58:18.222Z,1012.29
2017-04-08T01:58:58.679Z,1012.31
2017-04-08T01:59:39.114Z,1012.33
2017-04-08T02:01:31.678Z,1012.29
2017-04-08T02:02:12.174Z,1012.3
2017-04-08T02:02:52.662Z,1012.32
2017-04-08T02:03:33.087Z,1012.3
2017-04-08T02:04:13.570Z,1012.32
2017-04-08T02:04:53.993Z,1012.29
2017-04-08T02:05:34.453Z,1012.28
2017-04-08T02:06:14.912Z,1012.27
2017-04-08T02:06:55.355Z,1012.26
2017-04-08T02:07:35.815Z,1012.27
2017-04-08T02:08:16.303Z,1012.24
2017-04-08T02:08:56.757Z,1012.25
2017-04-08T02:09:37.191Z,1012.26
2017-04-08T02:10:17.621Z,1012.26
2017-04-08T02:12:30.343Z,1012.26
2017-04-08T02:13:10.817Z,1012.25
2017-04-08T02:13:51.303Z,1012.23
2017-04-08T02:14:31.759Z,1012.29
2017-04-08T02:15:12.225Z,1012.29
2017-04-08T02:15:52.714Z,1012.26
2017-04-08T02:16:33.145Z,1012.23
2017-04-08T02:17:13.603Z,1012.25
2017-04-08T02:17:54.034Z,1012.25
2017-04-08T02:18:34.581Z,1012.19
2017-04-08T02:19:15.913Z,1012.24
2017-04-08T02:21:33.813Z,1012.22
2017-04-08T02:22:14.271Z,1012.21
2017-04-08T02:22:54.758Z,1012.23
2017-04-08T02:23:35.258Z,1012.25
2017-04-08T02:24:15.712Z,1012.26
2017-04-08T02:24:56.159Z,1012.27
2017-04-08T02:25:36.585Z,1012.24
2017-04-08T02:26:17.061Z,1012.2
2017-04-08T02:26:57.516Z,1012.26
2017-04-08T02:28:50.074Z,1012.22
2017-04-08T02:29:30.537Z,1012.24
2017-04-08T02:30:11.007Z,1012.23
2017-04-08T02:30:51.497Z,1012.27
2017-04-08T02:31:31.977Z,1012.23
2017-04-08T02:32:12.479Z,1012.23
2017-04-08T02:32:52.955Z,1012.24
2017-04-08T02:33:33.451Z,1012.24
2017-04-08T02:34:13.930Z,1012.21
2017-04-08T02:34:54.420Z,1012.16
2017-04-08T02:35:34.889Z,1012.16
2017-04-08T02:36:15.395Z,1012.18
2017-04-08T02:36:55.843Z,1012.21
2017-04-08T02:37:36.336Z,1012.2
2017-04-08T02:38:16.808Z,1012.2
2017-04-08T02:38:57.298Z,1012.2
2017-04-08T02:41:15.097Z,1012.17
2017-04-08T02:41:55.575Z,1012.14
2017-04-08T02:42:36.055Z,1012.16
2017-04-08T02:43:16.499Z,1012.16
2017-04-08T02:45:29.239Z,1012.13
2017-04-08T02:46:09.775Z,1012.13
2017-04-08T02:46:50.250Z,1012.1
2017-04-08T02:47:30.641Z,1012.13
2017-04-08T02:48:11.097Z,1012.12
2017-04-08T02:48:51.544Z,1012.12
2017-04-08T02:49:32.011Z,1012.14
2017-04-08T02:50:12.451Z,1012.12
2017-04-08T02:50:52.931Z,1012.13
2017-04-08T02:51:33.381Z,1012.14
2017-04-08T02:52:13.825Z,1012.13
2017-04-08T02:52:54.296Z,1012.17
2017-04-08T02:53:34.733Z,1012.15
2017-04-08T02:54:15.174Z,1012.12
2017-04-08T02:54:55.678Z,1012.16
2017-04-08T02:55:36.093Z,1012.16
2017-04-08T02:57:33.713Z,1012.18
2017-04-08T02:58:14.186Z,1012.13
2017-04-08T02:58:54.651Z,1012.12
2017-04-08T02:59:35.103Z,1012.19
2017-04-08T03:00:15.574Z,1012.22
2017-04-08T03:02:43.538Z,1012.15
2017-04-08T03:03:24.017Z,1012.15
2017-04-08T03:04:04.476Z,1012.18
2017-04-08T03:04:45.048Z,1012.12
2017-04-08T03:05:26.326Z,1012.16
2017-04-08T03:06:06.819Z,1012.14
2017-04-08T03:06:47.308Z,1012.14
2017-04-08T03:07:27.840Z,1012.14
2017-04-08T03:08:08.311Z,1012.12
2017-04-08T03:08:48.793Z,1012.14
2017-04-08T03:09:29.252Z,1012.13
2017-04-08T03:10:09.716Z,1012.17
2017-04-08T03:10:50.177Z,1012.15
2017-04-08T03:11:30.662Z,1012.14
2017-04-08T03:13:23.528Z,1012.13
2017-04-08T03:14:03.998Z,1012.13
2017-04-08T03:14:45.175Z,1012.13
2017-04-08T03:15:25.648Z,1012.1
2017-04-08T03:16:06.114Z,1012.12
2017-04-08T03:16:46.581Z,1012.14
2017-04-08T03:17:27.001Z,1012.18
2017-04-08T03:18:07.464Z,1012.17
2017-04-08T03:18:47.927Z,1012.17
2017-04-08T03:19:28.384Z,1012.18
2017-04-08T03:20:08.832Z,1012.17
2017-04-08T03:20:49.285Z,1012.16
2017-04-08T03:21:29.750Z,1012.12
2017-04-08T03:22:10.211Z,1012.12
2017-04-08T03:22:50.681Z,1012.15
2017-04-08T03:25:08.515Z,1012.13
2017-04-08T03:25:49.054Z,1012.1
2017-04-08T03:26:29.486Z,1012.1
2017-04-08T03:27:09.965Z,1012.13
2017-04-08T03:27:50.426Z,1012.12
2017-04-08T03:28:30.916Z,1012.14
2017-04-08T03:29:11.379Z,1012.13
2017-04-08T03:29:51.834Z,1012.12
2017-04-08T03:30:32.320Z,1012.13
2017-04-08T03:31:12.815Z,1012.09
2017-04-08T03:31:53.283Z,1012.1
2017-04-08T03:32:33.749Z,1012.12
2017-04-08T03:33:14.202Z,1012.1
2017-04-08T03:35:31.989Z,1012.11
2017-04-08T03:36:12.503Z,1012.11
2017-04-08T03:36:53.010Z,1012.14
2017-04-08T03:37:33.468Z,1012.1
2017-04-08T03:38:13.933Z,1012.12
2017-04-08T03:38:54.465Z,1012.13
2017-04-08T03:39:34.901Z,1012.1
2017-04-08T03:40:15.399Z,1012.1
2017-04-08T03:40:55.839Z,1012.05
2017-04-08T03:41:36.318Z,1012.09
2017-04-08T03:42:16.806Z,1012.08
2017-04-08T03:42:57.340Z,1012.07
2017-04-08T03:43:37.781Z,1012.08
2017-04-08T03:44:18.253Z,1012.07
2017-04-08T03:44:58.676Z,1012.09
2017-04-08T03:45:39.148Z,1012.06
2017-04-08T03:46:19.552Z,1012.06
2017-04-08T03:46:59.980Z,1012.06
2017-04-08T03:47:40.418Z,1012.06
2017-04-08T03:48:20.878Z,1012.07
2017-04-08T03:49:01.340Z,1012.06
2017-04-08T03:49:41.824Z,1012.03
2017-04-08T03:50:22.342Z,1012.04
2017-04-08T03:51:02.737Z,1012.07
2017-04-08T03:51:43.174Z,1012.05
2017-04-08T03:52:23.614Z,1012.06
2017-04-08T03:53:04.060Z,1012.06
2017-04-08T03:53:44.534Z,1012.05
2017-04-08T03:54:25.000Z,1012.05
2017-04-08T03:55:05.451Z,1012.02
2017-04-08T03:57:33.366Z,1012
2017-04-08T03:58:13.832Z,1012.02
2017-04-08T03:58:54.334Z,1012.03
2017-04-08T03:59:34.772Z,1012.03
2017-04-08T04:00:15.279Z,1012.02
2017-04-08T04:00:55.758Z,1012.04
2017-04-08T04:01:36.249Z,1012.08
2017-04-08T04:02:16.744Z,1012.07
2017-04-08T04:02:57.304Z,1012.09
2017-04-08T04:03:37.716Z,1012.08
2017-04-08T04:04:18.184Z,1012.09
2017-04-08T04:04:58.681Z,1012.08
2017-04-08T04:05:39.173Z,1012.06
2017-04-08T04:06:19.674Z,1012.11
2017-04-08T04:07:00.159Z,1012.11
2017-04-08T04:07:40.618Z,1012.13
2017-04-08T04:08:21.074Z,1012.13
2017-04-08T04:09:01.521Z,1012.14
2017-04-08T04:09:42.006Z,1012.15
2017-04-08T04:10:22.450Z,1012.13
2017-04-08T04:11:02.900Z,1012.13
2017-04-08T04:11:43.356Z,1012.19
2017-04-08T04:12:23.828Z,1012.18
2017-04-08T04:13:04.283Z,1012.14
2017-04-08T04:13:44.718Z,1012.17
2017-04-08T04:14:25.190Z,1012.17
2017-04-08T04:16:53.112Z,1012.17
2017-04-08T04:17:33.610Z,1012.2
2017-04-08T04:18:14.071Z,1012.2
2017-04-08T04:18:54.587Z,1012.21
2017-04-08T04:19:35.072Z,1012.2
2017-04-08T04:20:15.555Z,1012.18
2017-04-08T04:20:56.031Z,1012.19
2017-04-08T04:21:36.522Z,1012.2
2017-04-08T04:22:17.001Z,1012.23
2017-04-08T04:22:57.486Z,1012.22
2017-04-08T04:23:38.022Z,1012.23
2017-04-08T04:24:18.472Z,1012.25
2017-04-08T04:24:58.963Z,1012.21
2017-04-08T04:25:39.420Z,1012.21
2017-04-08T04:26:19.909Z,1012.22
2017-04-08T04:27:00.391Z,1012.2
2017-04-08T04:27:40.871Z,1012.19
2017-04-08T04:28:21.326Z,1012.21
2017-04-08T04:29:01.801Z,1012.18
2017-04-08T04:29:42.319Z,1012.24
2017-04-08T04:30:22.738Z,1012.21
2017-04-08T04:31:03.224Z,1012.22
2017-04-08T04:33:15.935Z,1012.21
2017-04-08T04:33:56.415Z,1012.22
2017-04-08T04:34:36.938Z,1012.23
2017-04-08T04:35:17.361Z,1012.22
2017-04-08T04:35:57.851Z,1012.23
2017-04-08T04:36:38.349Z,1012.24
2017-04-08T04:37:18.812Z,1012.23
2017-04-08T04:37:59.331Z,1012.24
2017-04-08T04:38:39.883Z,1012.23
2017-04-08T04:39:20.359Z,1012.29
2017-04-08T04:40:00.814Z,1012.29
2017-04-08T04:40:41.246Z,1012.28
2017-04-08T04:41:21.719Z,1012.28
2017-04-08T04:42:02.173Z,1012.28
2017-04-08T04:42:42.635Z,1012.27
2017-04-08T04:45:00.495Z,1012.28
2017-04-08T04:45:40.932Z,1012.28
2017-04-08T04:46:21.383Z,1012.3
2017-04-08T04:47:01.778Z,1012.29
2017-04-08T04:47:42.225Z,1012.34
2017-04-08T04:48:22.695Z,1012.34
2017-04-08T04:49:03.166Z,1012.32
2017-04-08T04:51:20.955Z,1012.33
2017-04-08T04:52:01.482Z,1012.33
2017-04-08T04:52:41.926Z,1012.37
2017-04-08T04:53:22.381Z,1012.35
2017-04-08T04:54:02.850Z,1012.34
2017-04-08T04:54:43.298Z,1012.37
2017-04-08T04:55:23.781Z,1012.4
2017-04-08T04:56:04.210Z,1012.39
2017-04-08T04:56:44.674Z,1012.41
2017-04-08T04:57:25.134Z,1012.4
2017-04-08T04:58:05.617Z,1012.42
2017-04-08T04:58:46.108Z,1012.41
2017-04-08T04:59:26.560Z,1012.4
2017-04-08T05:00:07.004Z,1012.42
2017-04-08T05:00:47.416Z,1012.39
2017-04-08T05:01:27.850Z,1012.44
2017-04-08T05:02:08.291Z,1012.48
2017-04-08T05:04:05.894Z,1012.43
2017-04-08T05:04:46.375Z,1012.41
2017-04-08T05:05:26.862Z,1012.45
2017-04-08T05:06:07.364Z,1012.44
2017-04-08T05:06:47.865Z,1012.47
2017-04-08T05:07:28.363Z,1012.45
2017-04-08T05:08:08.863Z,1012.43
2017-04-08T05:08:49.337Z,1012.49
2017-04-08T05:09:29.836Z,1012.48
2017-04-08T05:10:10.325Z,1012.48
2017-04-08T05:10:50.841Z,1012.5
2017-04-08T05:11:31.311Z,1012.46
2017-04-08T05:12:11.805Z,1012.52
2017-04-08T05:12:52.286Z,1012.48
2017-04-08T05:13:32.777Z,1012.52
2017-04-08T05:14:13.262Z,1012.5
2017-04-08T05:14:53.730Z,1012.5
2017-04-08T05:15:34.204Z,1012.52
2017-04-08T05:16:14.672Z,1012.52
2017-04-08T05:16:55.153Z,1012.54
2017-04-08T05:17:35.628Z,1012.57
2017-04-08T05:18:16.106Z,1012.58
2017-04-08T05:18:56.575Z,1012.54
2017-04-08T05:19:37.038Z,1012.54
2017-04-08T05:20:17.548Z,1012.57
2017-04-08T05:20:58.033Z,1012.57
2017-04-08T05:21:38.514Z,1012.58
2017-04-08T05:22:19.001Z,1012.59
2017-04-08T05:22:59.456Z,1012.59
2017-04-08T05:23:39.935Z,1012.61
2017-04-08T05:24:20.443Z,1012.57
2017-04-08T05:25:00.889Z,1012.6
2017-04-08T05:25:41.363Z,1012.61
2017-04-08T05:26:21.865Z,1012.63
2017-04-08T05:27:02.345Z,1012.66
2017-04-08T05:27:42.963Z,1012.64
2017-04-08T05:28:23.389Z,1012.65
2017-04-08T05:29:03.863Z,1012.68
2017-04-08T05:29:44.354Z,1012.65
2017-04-08T05:30:24.842Z,1012.68
2017-04-08T05:31:05.345Z,1012.67
2017-04-08T05:31:45.822Z,1012.67
2017-04-08T05:32:26.280Z,1012.7
2017-04-08T05:33:06.744Z,1012.7
2017-04-08T05:33:47.218Z,1012.72
2017-04-08T05:34:27.707Z,1012.69
2017-04-08T05:35:08.137Z,1012.73
2017-04-08T05:35:48.565Z,1012.72
2017-04-08T05:36:29.021Z,1012.68
2017-04-08T05:37:09.442Z,1012.74
2017-04-08T05:37:49.930Z,1012.73
2017-04-08T05:38:30.410Z,1012.74
2017-04-08T05:39:10.872Z,1012.73
2017-04-08T05:41:08.954Z,1012.8
2017-04-08T05:41:49.363Z,1012.79
2017-04-08T05:42:29.789Z,1012.81
2017-04-08T05:43:10.271Z,1012.8
2017-04-08T05:43:50.706Z,1012.78
2017-04-08T05:44:31.119Z,1012.78
2017-04-08T05:45:11.589Z,1012.79
2017-04-08T05:45:52.012Z,1012.79
2017-04-08T05:46:32.475Z,1012.78
2017-04-08T05:47:12.922Z,1012.83
2017-04-08T05:47:53.357Z,1012.81
2017-04-08T05:48:33.830Z,1012.86
2017-04-08T05:49:14.283Z,1012.81
2017-04-08T05:49:54.735Z,1012.83
2017-04-08T05:50:35.205Z,1012.79
2017-04-08T05:51:15.677Z,1012.83
2017-04-08T05:51:56.121Z,1012.82
2017-04-08T05:52:36.609Z,1012.82
2017-04-08T05:53:17.054Z,1012.8
2017-04-08T05:53:57.532Z,1012.82
2017-04-08T05:54:37.972Z,1012.83
2017-04-08T05:55:19.117Z,1012.81
2017-04-08T05:55:59.556Z,1012.83
2017-04-08T05:56:40.034Z,1012.85
2017-04-08T05:58:52.755Z,1012.82
2017-04-08T05:59:33.212Z,1012.83
2017-04-08T06:00:13.691Z,1012.83
2017-04-08T06:00:54.147Z,1012.81
2017-04-08T06:01:34.614Z,1012.82
2017-04-08T06:02:15.104Z,1012.85
2017-04-08T06:02:55.591Z,1012.83
2017-04-08T06:03:36.082Z,1012.88
2017-04-08T06:04:16.547Z,1012.85
2017-04-08T06:04:57.033Z,1012.85
2017-04-08T06:05:37.537Z,1012.87
2017-04-08T06:06:18.054Z,1012.87
2017-04-08T06:06:58.531Z,1012.87
2017-04-08T06:07:39.052Z,1012.88
2017-04-08T06:08:19.487Z,1012.87
2017-04-08T06:08:59.963Z,1012.9
2017-04-08T06:09:40.474Z,1012.9
2017-04-08T06:10:20.947Z,1012.93
2017-04-08T06:11:01.415Z,1012.93
2017-04-08T06:11:41.885Z,1012.93
2017-04-08T06:12:22.379Z,1012.94
2017-04-08T06:13:02.881Z,1012.95
2017-04-08T06:13:43.339Z,1012.97
2017-04-08T06:14:23.811Z,1012.95
2017-04-08T06:15:04.287Z,1012.97
2017-04-08T06:15:44.779Z,1012.94
2017-04-08T06:16:25.278Z,1012.9
2017-04-08T06:17:05.755Z,1012.92
2017-04-08T06:17:46.292Z,1012.92
2017-04-08T06:18:26.782Z,1012.92
2017-04-08T06:19:07.306Z,1012.94
2017-04-08T06:19:47.783Z,1012.94
2017-04-08T06:20:28.230Z,1012.96
2017-04-08T06:21:08.712Z,1012.96
2017-04-08T06:23:21.418Z,1012.96
2017-04-08T06:24:01.891Z,1012.94
2017-04-08T06:24:42.364Z,1012.92
2017-04-08T06:25:22.828Z,1012.91
2017-04-08T06:26:03.298Z,1012.95
2017-04-08T06:26:43.813Z,1012.96
2017-04-08T06:27:24.280Z,1012.98
2017-04-08T06:28:04.774Z,1012.95
2017-04-08T06:29:57.363Z,1012.92
2017-04-08T06:30:37.855Z,1012.96
2017-04-08T06:31:18.326Z,1012.98
2017-04-08T06:31:58.809Z,1012.96
2017-04-08T06:32:39.264Z,1012.92
2017-04-08T06:33:19.741Z,1012.92
2017-04-08T06:34:00.213Z,1012.93
2017-04-08T06:34:40.764Z,1012.94
2017-04-08T06:35:21.277Z,1013.01
2017-04-08T06:36:01.770Z,1012.98
2017-04-08T06:36:42.265Z,1012.98
2017-04-08T06:37:22.736Z,1012.99
2017-04-08T06:38:03.227Z,1012.99
2017-04-08T06:38:43.704Z,1013.01
2017-04-08T06:39:24.174Z,1013
2017-04-08T06:40:04.670Z,1012.98
2017-04-08T06:40:45.166Z,1012.99
2017-04-08T06:41:25.648Z,1012.99
2017-04-08T06:42:06.171Z,1012.97
2017-04-08T06:42:46.650Z,1012.96
2017-04-08T06:43:27.090Z,1013.03
2017-04-08T06:44:07.574Z,1012.98
2017-04-08T06:44:48.008Z,1012.97
2017-04-08T06:45:28.473Z,1012.96
2017-04-08T06:46:08.919Z,1013.01
2017-04-08T06:46:49.404Z,1013
2017-04-08T06:47:29.857Z,1013.01
2017-04-08T06:49:47.675Z,1013.08
2017-04-08T06:50:28.162Z,1013.03
2017-04-08T06:51:08.636Z,1013.04
2017-04-08T06:51:49.107Z,1013.04
2017-04-08T06:52:29.574Z,1013.07
2017-04-08T06:53:10.063Z,1013.03
2017-04-08T06:53:50.556Z,1013.03
2017-04-08T06:54:31.068Z,1013.06
2017-04-08T06:55:11.554Z,1013.01
2017-04-08T06:55:52.060Z,1013.09
2017-04-08T06:56:32.527Z,1013.07
2017-04-08T06:57:12.977Z,1013.11
2017-04-08T06:57:53.484Z,1013.11
2017-04-08T06:58:33.961Z,1013.09
2017-04-08T06:59:14.440Z,1013.15
2017-04-08T06:59:54.912Z,1013.13
2017-04-08T07:00:35.398Z,1013.2
2017-04-08T07:01:15.884Z,1013.16
2017-04-08T07:01:56.334Z,1013.15
2017-04-08T07:02:36.807Z,1013.19
2017-04-08T07:03:17.271Z,1013.2
2017-04-08T07:03:57.756Z,1013.16
2017-04-08T07:04:38.221Z,1013.23
2017-04-08T07:05:18.692Z,1013.22
2017-04-08T07:05:59.192Z,1013.2
2017-04-08T07:06:39.668Z,1013.24
2017-04-08T07:07:20.166Z,1013.21
2017-04-08T07:08:00.666Z,1013.2
2017-04-08T07:08:41.167Z,1013.23
2017-04-08T07:09:21.660Z,1013.21
2017-04-08T07:10:02.152Z,1013.19
2017-04-08T07:10:42.674Z,1013.23
2017-04-08T07:11:23.152Z,1013.2
2017-04-08T07:12:03.651Z,1013.21
2017-04-08T07:12:44.123Z,1013.24
2017-04-08T07:13:24.635Z,1013.21
2017-04-08T07:14:05.109Z,1013.21
2017-04-08T07:14:45.578Z,1013.22
2017-04-08T07:15:26.113Z,1013.22
2017-04-08T07:16:06.571Z,1013.22
2017-04-08T07:16:47.078Z,1013.24
2017-04-08T07:17:27.588Z,1013.25
2017-04-08T07:18:08.051Z,1013.31
2017-04-08T07:18:48.519Z,1013.33
2017-04-08T07:19:29.011Z,1013.36
2017-04-08T07:20:09.579Z,1013.32
2017-04-08T07:20:50.005Z,1013.36
2017-04-08T07:21:30.499Z,1013.37
2017-04-08T07:22:11.012Z,1013.34
2017-04-08T07:22:51.509Z,1013.38
2017-04-08T07:23:31.982Z,1013.4
2017-04-08T07:24:12.476Z,1013.41
2017-04-08T07:24:52.974Z,1013.45
2017-04-08T07:25:33.518Z,1013.5
2017-04-08T07:26:13.966Z,1013.5
2017-04-08T07:26:54.439Z,1013.55
2017-04-08T07:27:34.899Z,1013.55
2017-04-08T07:28:15.390Z,1013.56
2017-04-08T07:28:55.896Z,1013.55
2017-04-08T07:29:36.374Z,1013.57
2017-04-08T07:30:16.853Z,1013.62
2017-04-08T07:30:57.346Z,1013.61
2017-04-08T07:31:37.830Z,1013.67
2017-04-08T07:32:18.319Z,1013.67
2017-04-08T07:32:58.808Z,1013.65
2017-04-08T07:33:39.282Z,1013.68
2017-04-08T07:34:19.799Z,1013.71
2017-04-08T07:35:00.310Z,1013.69
2017-04-08T07:35:40.802Z,1013.71
2017-04-08T07:36:21.282Z,1013.74
2017-04-08T07:37:01.756Z,1013.79
2017-04-08T07:37:42.258Z,1013.82
2017-04-08T07:38:22.759Z,1013.79
2017-04-08T07:39:03.273Z,1013.84
2017-04-08T07:39:43.748Z,1013.83
2017-04-08T07:40:24.233Z,1013.87
2017-04-08T07:41:04.702Z,1013.88
2017-04-08T07:41:45.206Z,1013.88
2017-04-08T07:42:25.690Z,1013.91
2017-04-08T07:43:06.217Z,1013.92
2017-04-08T07:43:46.678Z,1013.93
2017-04-08T07:44:27.097Z,1013.92
2017-04-08T07:45:07.554Z,1013.94
2017-04-08T07:45:48.000Z,1013.99
2017-04-08T07:48:15.961Z,1013.97
2017-04-08T07:48:56.431Z,1013.98
2017-04-08T07:49:36.873Z,1013.94
2017-04-08T07:50:17.298Z,1013.93
2017-04-08T07:50:57.720Z,1013.89
2017-04-08T07:51:38.234Z,1013.92
2017-04-08T07:54:06.151Z,1013.85
2017-04-08T07:54:46.631Z,1013.82
2017-04-08T07:55:27.117Z,1013.82
2017-04-08T07:56:07.598Z,1013.79
2017-04-08T07:56:48.099Z,1013.77
2017-04-08T07:57:28.587Z,1013.79
2017-04-08T07:58:09.091Z,1013.79
2017-04-08T07:58:49.572Z,1013.78
2017-04-08T07:59:30.051Z,1013.75
2017-04-08T08:00:10.550Z,1013.71
2017-04-08T08:00:51.042Z,1013.69
2017-04-08T08:01:31.543Z,1013.67
2017-04-08T08:02:12.027Z,1013.61
2017-04-08T08:02:52.519Z,1013.6
2017-04-08T08:03:33.868Z,1013.56
2017-04-08T08:04:14.372Z,1013.55
2017-04-08T08:04:54.854Z,1013.53
2017-04-08T08:05:35.344Z,1013.52
2017-04-08T08:06:15.836Z,1013.53
2017-04-08T08:06:56.342Z,1013.51
2017-04-08T08:07:36.837Z,1013.51
2017-04-08T08:08:17.321Z,1013.52
2017-04-08T08:08:57.778Z,1013.51
2017-04-08T08:09:38.261Z,1013.5
2017-04-08T08:10:18.726Z,1013.46
2017-04-08T08:10:59.160Z,1013.55
2017-04-08T08:12:51.713Z,1013.91
2017-04-08T08:13:32.263Z,1013.99
2017-04-08T08:16:00.218Z,1013.42
2017-04-08T08:16:40.739Z,1013.42
2017-04-08T08:17:21.198Z,1013.42
2017-04-08T08:18:01.697Z,1013.4
2017-04-08T08:18:42.171Z,1013.38
2017-04-08T08:19:22.684Z,1013.35
2017-04-08T08:20:03.137Z,1013.36
2017-04-08T08:20:43.602Z,1013.37
2017-04-08T08:21:24.047Z,1013.37
2017-04-08T08:22:04.483Z,1013.36
2017-04-08T08:22:44.908Z,1013.32
2017-04-08T08:23:25.367Z,1013.35
2017-04-08T08:24:05.822Z,1013.31
2017-04-08T08:24:46.233Z,1013.33
2017-04-08T08:25:26.686Z,1013.29
2017-04-08T08:26:07.186Z,1013.29
2017-04-08T08:26:47.609Z,1013.3
2017-04-08T08:27:28.058Z,1013.34
2017-04-08T08:28:08.507Z,1013.55
2017-04-08T08:28:48.964Z,1014.02
2017-04-08T08:29:29.435Z,1014.51
2017-04-08T08:30:09.909Z,1014.76
2017-04-08T08:30:50.356Z,1014.82
2017-04-08T08:31:30.811Z,1014.92
2017-04-08T08:32:11.235Z,1015
2017-04-08T08:32:51.673Z,1015.05
2017-04-08T08:33:32.116Z,1015.02
2017-04-08T08:34:12.607Z,1015.04
2017-04-08T08:34:53.033Z,1014.97
2017-04-08T08:35:33.508Z,1014.95
2017-04-08T08:36:13.991Z,1014.95
2017-04-08T08:36:54.423Z,1014.98
2017-04-08T08:37:34.917Z,1015.1
2017-04-08T08:38:15.383Z,1015.17
2017-04-08T08:38:55.833Z,1015.19
2017-04-08T08:39:36.308Z,1015.18
2017-04-08T08:40:16.762Z,1015.22
2017-04-08T08:40:57.234Z,1015.18
2017-04-08T08:41:37.668Z,1015.25
2017-04-08T08:42:18.146Z,1015.27
2017-04-08T08:42:59.531Z,1015.25
2017-04-08T08:43:39.980Z,1015.23
2017-04-08T08:44:20.439Z,1015.24
2017-04-08T08:45:00.898Z,1015.25
2017-04-08T08:45:42.292Z,1015.26
2017-04-08T08:46:22.790Z,1015.29
2017-04-08T08:47:03.244Z,1015.36
2017-04-08T08:47:43.805Z,1015.22
2017-04-08T08:48:24.300Z,1015.13
2017-04-08T08:49:04.745Z,1015.14
2017-04-08T08:49:45.246Z,1015.13
2017-04-08T08:50:25.689Z,1015.21
2017-04-08T08:51:06.142Z,1015.07
2017-04-08T08:51:46.605Z,1014.99
2017-04-08T08:52:27.061Z,1014.92
2017-04-08T08:53:07.510Z,1014.88
2017-04-08T08:53:47.975Z,1014.84
2017-04-08T08:54:28.429Z,1014.8
2017-04-08T08:55:08.861Z,1014.79
2017-04-08T08:55:49.341Z,1014.79
2017-04-08T08:56:29.811Z,1014.82
2017-04-08T08:57:10.277Z,1014.81
2017-04-08T08:57:50.753Z,1014.79
2017-04-08T08:58:31.188Z,1014.77
2017-04-08T08:59:11.667Z,1014.77
2017-04-08T08:59:52.095Z,1014.81
2017-04-08T09:00:32.553Z,1014.76